createdAt,value
2017-11-11T00:01:42.529Z,33.97
2017-11-11T00:04:10.005Z,37.30
2017-11-11T00:06:38.277Z,32.40
2017-11-11T00:09:05.760Z,36.97
2017-11-11T00:11:33.994Z,36.73
2017-11-11T00:14:01.476Z,36.73
2017-11-11T00:16:29.727Z,44.43
2017-11-11T00:18:57.209Z,42.03
2017-11-11T00:21:24.679Z,36.40
2017-11-11T00:23:52.923Z,52.77
2017-11-11T00:26:20.402Z,45.30
2017-11-11T00:28:47.875Z,38.00
2017-11-11T00:31:16.130Z,30.03
2017-11-11T00:33:43.603Z,34.83
2017-11-11T00:36:11.846Z,34.70
2017-11-11T00:38:39.318Z,35.87
2017-11-11T00:41:06.803Z,39.97
2017-11-11T00:43:35.047Z,29.13
2017-11-11T00:46:02.542Z,30.90
2017-11-11T00:48:30.787Z,28.53
2017-11-11T00:50:59.032Z,38.73
2017-11-11T00:53:26.510Z,34.93
2017-11-11T00:55:53.990Z,33.87
2017-11-11T00:58:21.468Z,34.10
2017-11-11T01:00:49.727Z,36.27
2017-11-11T01:03:17.205Z,31.57
2017-11-11T01:05:45.446Z,31.37
2017-11-11T01:08:12.944Z,31.27
2017-11-11T01:10:41.199Z,28.47
2017-11-11T01:13:08.678Z,30.00
2017-11-11T01:15:36.920Z,28.23
2017-11-11T01:18:04.398Z,38.90
2017-11-11T01:20:31.875Z,32.50
2017-11-11T01:23:00.122Z,33.17
2017-11-11T01:25:27.598Z,35.67
2017-11-11T01:27:55.838Z,30.57
2017-11-11T01:30:23.319Z,37.17
2017-11-11T01:32:50.801Z,34.20
2017-11-11T01:35:19.050Z,25.30
2017-11-11T01:37:46.534Z,31.30
2017-11-11T01:40:14.779Z,38.43
2017-11-11T01:42:42.254Z,31.97
2017-11-11T01:45:09.731Z,32.83
2017-11-11T01:47:37.971Z,31.80
2017-11-11T01:50:05.455Z,29.03
2017-11-11T01:52:33.699Z,28.57
2017-11-11T01:55:01.184Z,34.57
2017-11-11T01:57:28.662Z,30.23
2017-11-11T01:59:56.911Z,28.30
2017-11-11T02:02:24.395Z,34.00
2017-11-11T02:04:52.643Z,28.53
2017-11-11T02:07:20.123Z,30.77
2017-11-11T02:09:48.363Z,27.03
2017-11-11T02:12:15.842Z,26.43
2017-11-11T02:14:43.317Z,33.03
2017-11-11T02:17:11.556Z,29.67
2017-11-11T02:19:39.053Z,28.33
2017-11-11T02:22:07.318Z,29.03
2017-11-11T02:24:34.790Z,25.30
2017-11-11T02:27:03.030Z,29.77
2017-11-11T02:29:30.520Z,30.50
2017-11-11T02:31:58.770Z,24.80
2017-11-11T02:34:26.247Z,27.40
2017-11-11T02:36:53.727Z,23.73
2017-11-11T02:39:21.974Z,28.13
2017-11-11T02:41:49.453Z,30.70
2017-11-11T02:44:17.708Z,28.73
2017-11-11T02:46:45.192Z,25.07
2017-11-11T02:49:13.439Z,26.50
2017-11-11T02:51:40.914Z,27.43
2017-11-11T02:54:09.913Z,27.63
2017-11-11T02:56:38.165Z,25.60
2017-11-11T02:59:05.641Z,26.33
2017-11-11T03:01:33.117Z,48.70
2017-11-11T03:04:01.366Z,28.10
2017-11-11T03:06:30.358Z,27.67
2017-11-11T03:08:57.838Z,30.40
2017-11-11T03:11:26.379Z,23.87
2017-11-11T03:13:53.858Z,24.60
2017-11-11T03:16:21.329Z,25.37
2017-11-11T03:18:49.574Z,22.67
2017-11-11T03:21:17.055Z,25.47
2017-11-11T03:23:44.531Z,26.90
2017-11-11T03:26:12.009Z,26.17
2017-11-11T03:28:40.253Z,22.87
2017-11-11T03:31:07.745Z,26.03
2017-11-11T03:33:35.996Z,28.63
2017-11-11T03:36:03.483Z,24.97
2017-11-11T03:38:31.731Z,28.50
2017-11-11T03:40:59.205Z,28.60
2017-11-11T03:43:27.450Z,28.63
2017-11-11T03:45:54.934Z,25.73
2017-11-11T03:48:23.171Z,24.30
2017-11-11T03:50:50.650Z,30.33
2017-11-11T03:53:18.122Z,23.10
2017-11-11T03:55:45.602Z,21.80
2017-11-11T03:58:13.842Z,25.33
2017-11-11T04:00:41.316Z,29.27
2017-11-11T04:03:08.793Z,27.83
2017-11-11T04:05:37.038Z,40.33
2017-11-11T04:08:04.515Z,27.97
2017-11-11T04:10:31.991Z,25.80
2017-11-11T04:13:00.234Z,27.50
2017-11-11T04:15:27.710Z,27.57
2017-11-11T04:17:55.958Z,29.80
2017-11-11T04:20:23.435Z,35.57
2017-11-11T04:22:50.911Z,28.00
2017-11-11T04:25:19.162Z,25.47
2017-11-11T04:27:46.636Z,24.87
2017-11-11T04:30:14.112Z,24.07
2017-11-11T04:32:42.354Z,25.07
2017-11-11T04:35:09.830Z,23.67
2017-11-11T04:37:37.305Z,25.27
2017-11-11T04:40:05.546Z,23.77
2017-11-11T04:42:33.022Z,27.70
2017-11-11T04:45:00.505Z,26.30
2017-11-11T04:47:28.748Z,22.30
2017-11-11T04:49:56.230Z,23.07
2017-11-11T04:52:24.487Z,24.20
2017-11-11T04:54:51.965Z,24.73
2017-11-11T04:57:20.210Z,25.03
2017-11-11T04:59:47.683Z,25.03
2017-11-11T05:02:15.161Z,25.13
2017-11-11T05:04:43.400Z,22.90
2017-11-11T05:07:10.874Z,23.07
2017-11-11T05:09:38.350Z,33.23
2017-11-11T05:12:06.587Z,22.77
2017-11-11T05:14:34.071Z,24.23
2017-11-11T05:17:01.557Z,24.00
2017-11-11T05:19:29.801Z,22.00
2017-11-11T05:21:57.382Z,29.27
2017-11-11T05:24:25.624Z,21.73
2017-11-11T05:26:53.104Z,23.47
2017-11-11T05:29:20.579Z,25.57
2017-11-11T05:31:48.822Z,23.23
2017-11-11T05:34:16.310Z,24.83
2017-11-11T05:36:44.568Z,26.60
2017-11-11T05:39:12.049Z,25.60
2017-11-11T05:41:40.286Z,21.80
2017-11-11T05:44:07.763Z,24.00
2017-11-11T05:46:35.238Z,22.83
2017-11-11T05:49:03.487Z,28.20
2017-11-11T05:51:30.959Z,23.20
2017-11-11T05:53:59.203Z,27.23
2017-11-11T05:56:26.679Z,21.93
2017-11-11T05:58:54.159Z,23.23
2017-11-11T06:01:21.639Z,25.57
2017-11-11T06:03:49.926Z,21.77
2017-11-11T06:06:17.401Z,17.47
2017-11-11T06:08:44.869Z,27.10
2017-11-11T06:11:12.347Z,22.33
2017-11-11T06:13:39.820Z,21.00
2017-11-11T06:16:07.303Z,25.57
2017-11-11T06:18:35.562Z,20.63
2017-11-11T06:21:03.032Z,21.83
2017-11-11T06:23:31.274Z,22.47
2017-11-11T06:25:58.750Z,22.87
2017-11-11T06:28:26.224Z,24.07
2017-11-11T06:30:53.707Z,17.93
2017-11-11T06:33:21.186Z,19.80
2017-11-11T06:35:48.663Z,22.93
2017-11-11T06:38:16.130Z,18.47
2017-11-11T06:40:43.616Z,18.80
2017-11-11T06:43:11.090Z,24.50
2017-11-11T06:45:39.331Z,23.33
2017-11-11T06:48:06.814Z,23.33
2017-11-11T06:50:35.057Z,25.20
2017-11-11T06:53:02.539Z,20.30
2017-11-11T06:55:30.015Z,19.13
2017-11-11T06:57:58.259Z,17.80
2017-11-11T07:00:25.789Z,21.27
2017-11-11T07:02:53.270Z,16.07
2017-11-11T07:05:20.742Z,16.37
2017-11-11T07:07:48.219Z,17.07
2017-11-11T07:10:16.458Z,15.30
2017-11-11T07:12:43.939Z,17.23
2017-11-11T07:15:11.414Z,22.87
2017-11-11T07:17:39.659Z,18.50
2017-11-11T07:20:07.134Z,19.10
2017-11-11T07:22:36.119Z,18.00
2017-11-11T07:25:03.596Z,18.30
2017-11-11T07:27:31.075Z,21.07
2017-11-11T07:29:59.320Z,25.67
2017-11-11T07:32:26.796Z,17.93
2017-11-11T07:34:55.058Z,18.13
2017-11-11T07:37:22.533Z,19.03
2017-11-11T07:39:50.775Z,16.30
2017-11-11T07:42:18.250Z,18.80
2017-11-11T07:44:45.727Z,19.30
2017-11-11T07:47:13.972Z,17.30
2017-11-11T07:49:41.459Z,13.83
2017-11-11T07:52:09.705Z,15.27
2017-11-11T07:54:37.183Z,15.80
2017-11-11T07:57:06.173Z,16.40
2017-11-11T07:59:33.654Z,20.37
2017-11-11T08:02:01.926Z,23.33
2017-11-11T08:04:30.214Z,19.00
2017-11-11T08:06:58.467Z,23.43
2017-11-11T08:09:25.942Z,17.90
2017-11-11T08:11:54.186Z,16.20
2017-11-11T08:14:21.664Z,19.73
2017-11-11T08:16:49.138Z,18.33
2017-11-11T08:19:17.378Z,13.63
2017-11-11T08:21:44.855Z,14.60
2017-11-11T08:24:12.331Z,19.13
2017-11-11T08:26:40.575Z,18.57
2017-11-11T08:29:08.056Z,15.60
2017-11-11T08:31:35.530Z,15.70
2017-11-11T08:34:04.100Z,17.20
2017-11-11T08:36:31.639Z,18.57
2017-11-11T08:38:59.227Z,21.53
2017-11-11T08:41:27.826Z,20.40
2017-11-11T08:43:56.158Z,28.53
2017-11-11T08:46:23.645Z,26.87
2017-11-11T08:48:51.290Z,29.50
2017-11-11T08:51:18.853Z,24.20
2017-11-11T08:53:46.324Z,27.57
2017-11-11T08:56:14.579Z,25.93
2017-11-11T08:58:42.062Z,21.50
2017-11-11T09:01:09.534Z,27.83
2017-11-11T09:03:37.775Z,25.00
2017-11-11T09:06:05.261Z,30.23
2017-11-11T09:08:33.510Z,27.33
2017-11-11T09:11:00.993Z,30.17
2017-11-11T09:13:29.234Z,29.90
2017-11-11T09:15:56.714Z,36.93
2017-11-11T09:18:24.199Z,35.50
2017-11-11T09:20:52.452Z,35.40
2017-11-11T09:23:19.941Z,34.80
2017-11-11T09:25:48.187Z,36.77
2017-11-11T09:28:15.674Z,39.23
2017-11-11T09:30:43.923Z,57.37
2017-11-11T09:33:11.400Z,46.60
2017-11-11T09:35:39.650Z,53.27
2017-11-11T09:38:07.130Z,54.53
2017-11-11T09:40:34.614Z,49.90
2017-11-11T09:43:02.864Z,70.83
2017-11-11T09:45:30.346Z,59.77
2017-11-11T09:47:58.589Z,64.30
2017-11-11T09:50:26.070Z,65.13
2017-11-11T09:52:54.314Z,62.93
2017-11-11T09:55:21.927Z,59.17
2017-11-11T09:57:49.410Z,66.50
2017-11-11T10:00:16.890Z,63.70
2017-11-11T10:02:44.378Z,64.10
2017-11-11T10:05:12.625Z,79.07
2017-11-11T10:07:40.111Z,66.20
2017-11-11T10:10:07.595Z,62.50
2017-11-11T10:12:35.072Z,63.33
2017-11-11T10:15:02.558Z,65.37
2017-11-11T10:17:30.047Z,74.53
2017-11-11T10:19:59.150Z,78.57
2017-11-11T10:22:27.415Z,68.40
2017-11-11T10:24:54.892Z,71.67
2017-11-11T10:27:23.130Z,73.77
2017-11-11T10:29:50.607Z,72.90
2017-11-11T10:32:18.105Z,78.43
2017-11-11T10:34:45.599Z,71.33
2017-11-11T10:37:13.081Z,67.33
2017-11-11T10:39:40.562Z,72.97
2017-11-11T10:42:08.800Z,69.53
2017-11-11T10:44:36.390Z,67.03
2017-11-11T10:47:05.224Z,70.20
2017-11-11T10:49:33.534Z,84.70
2017-11-11T10:52:01.018Z,77.80
2017-11-11T10:54:30.006Z,75.57
2017-11-11T10:56:58.267Z,80.20
2017-11-11T10:59:25.758Z,71.23
2017-11-11T11:01:54.006Z,77.73
2017-11-11T11:04:27.319Z,79.43
2017-11-11T11:06:55.574Z,71.23
2017-11-11T11:09:23.058Z,76.17
2017-11-11T11:11:51.323Z,73.90
2017-11-11T11:14:20.327Z,64.90
2017-11-11T11:16:48.578Z,62.77
2017-11-11T11:19:16.063Z,68.73
2017-11-11T11:21:43.571Z,66.77
2017-11-11T11:24:11.050Z,58.20
2017-11-11T11:26:38.542Z,83.20
2017-11-11T11:29:06.824Z,62.17
2017-11-11T11:31:35.141Z,58.40
2017-11-11T11:34:02.626Z,65.90
2017-11-11T11:36:30.126Z,64.53
2017-11-11T11:38:58.379Z,75.57
2017-11-11T11:41:25.860Z,69.53
2017-11-11T11:43:54.241Z,66.30
2017-11-11T11:46:22.492Z,60.30
2017-11-11T11:48:49.978Z,63.37
2017-11-11T11:51:18.234Z,65.20
2017-11-11T11:53:45.727Z,72.60
2017-11-11T11:56:13.210Z,67.60
2017-11-11T11:58:40.694Z,70.13
2017-11-11T12:01:08.187Z,74.43
2017-11-11T12:03:36.434Z,68.40
2017-11-11T12:06:03.915Z,66.73
2017-11-11T12:08:32.169Z,59.73
2017-11-11T12:10:59.664Z,67.53
2017-11-11T12:13:27.915Z,66.57
2017-11-11T12:15:55.402Z,63.03
2017-11-11T12:18:23.668Z,71.33
2017-11-11T12:20:51.914Z,61.80
2017-11-11T12:23:19.398Z,63.73
2017-11-11T12:25:47.667Z,61.30
2017-11-11T12:28:15.148Z,57.70
2017-11-11T12:30:43.400Z,60.73
2017-11-11T12:33:11.638Z,58.77
2017-11-11T12:35:39.124Z,60.40
2017-11-11T12:38:06.606Z,57.77
2017-11-11T12:40:34.867Z,62.77
2017-11-11T12:43:02.347Z,62.00
2017-11-11T12:45:30.621Z,61.57
2017-11-11T12:47:58.878Z,65.70
2017-11-11T12:50:26.361Z,64.97
2017-11-11T12:52:54.625Z,68.73
2017-11-11T12:55:22.109Z,64.53
2017-11-11T12:57:50.355Z,62.83
2017-11-11T13:00:17.838Z,67.33
2017-11-11T13:02:46.089Z,67.43
2017-11-11T13:05:13.640Z,60.33
2017-11-11T13:07:41.125Z,65.30
2017-11-11T13:10:09.381Z,55.10
2017-11-11T13:12:36.864Z,61.27
2017-11-11T13:15:05.110Z,57.00
2017-11-11T13:17:32.590Z,66.43
2017-11-11T13:20:00.083Z,60.23
2017-11-11T13:22:27.567Z,63.10
2017-11-11T13:24:55.054Z,65.30
2017-11-11T13:27:22.539Z,63.70
2017-11-11T13:29:50.791Z,69.77
2017-11-11T13:32:18.278Z,67.33
2017-11-11T13:34:46.525Z,58.33
2017-11-11T13:37:14.006Z,65.97
2017-11-11T13:39:42.261Z,78.77
2017-11-11T13:42:09.738Z,65.33
2017-11-11T13:44:37.223Z,61.10
2017-11-11T13:47:04.698Z,73.67
2017-11-11T13:49:32.179Z,64.93
2017-11-11T13:51:59.658Z,58.63
2017-11-11T13:54:27.166Z,56.63
2017-11-11T13:56:54.656Z,62.13
2017-11-11T13:59:22.139Z,64.33
2017-11-11T14:01:49.622Z,61.27
2017-11-11T14:04:17.866Z,62.10
2017-11-11T14:06:45.354Z,65.23
2017-11-11T14:09:13.606Z,654.37
2017-11-11T14:11:41.090Z,334.63
2017-11-11T14:14:09.368Z,54.90
2017-11-11T14:16:37.663Z,58.50
2017-11-11T14:19:05.154Z,65.53
2017-11-11T14:21:32.643Z,55.67
2017-11-11T14:24:00.130Z,60.50
2017-11-11T14:26:28.394Z,61.93
2017-11-11T14:28:56.665Z,61.40
2017-11-11T14:31:24.922Z,68.00
2017-11-11T14:33:52.411Z,62.40
2017-11-11T14:36:20.722Z,64.53
2017-11-11T14:38:48.213Z,56.37
2017-11-11T14:41:15.711Z,262.23
2017-11-11T14:43:43.982Z,79.33
2017-11-11T14:46:12.232Z,60.50
2017-11-11T14:48:39.754Z,713.30
2017-11-11T14:51:07.266Z,65.60
2017-11-11T14:53:34.754Z,57.10
2017-11-11T14:56:02.333Z,56.27
2017-11-11T14:58:29.822Z,55.57
2017-11-11T15:00:57.308Z,62.50
2017-11-11T15:03:25.566Z,61.23
2017-11-11T15:05:53.060Z,57.63
2017-11-11T15:08:21.299Z,56.23
2017-11-11T15:10:48.782Z,55.90
2017-11-11T15:13:17.034Z,65.87
2017-11-11T15:15:44.527Z,62.47
2017-11-11T15:18:12.773Z,70.40
2017-11-11T15:20:40.257Z,67.20
2017-11-11T15:23:08.520Z,65.77
2017-11-11T15:25:36.012Z,81.50
2017-11-11T15:28:03.488Z,71.80
2017-11-11T15:30:30.968Z,80.43
2017-11-11T15:32:58.449Z,64.33
2017-11-11T15:35:26.717Z,67.73
2017-11-11T15:37:54.198Z,78.23
2017-11-11T15:40:21.683Z,63.93
2017-11-11T15:42:49.160Z,75.40
2017-11-11T15:45:16.644Z,82.40
2017-11-11T15:47:44.126Z,74.73
2017-11-11T15:50:11.616Z,69.87
2017-11-11T15:52:39.223Z,70.10
2017-11-11T15:55:06.711Z,70.40
2017-11-11T15:57:34.194Z,81.83
2017-11-11T16:00:02.438Z,82.13
2017-11-11T16:02:29.915Z,70.60
2017-11-11T16:05:03.871Z,91.33
2017-11-11T16:07:31.349Z,73.50
2017-11-11T16:09:58.835Z,72.73
2017-11-11T16:12:26.314Z,78.50
2017-11-11T16:14:54.563Z,71.23
2017-11-11T16:17:22.038Z,73.70
2017-11-11T16:19:50.290Z,74.63
2017-11-11T16:22:17.791Z,82.10
2017-11-11T16:24:46.038Z,80.50
2017-11-11T16:27:13.513Z,71.07
2017-11-11T16:29:41.766Z,69.23
2017-11-11T16:32:10.762Z,73.00
2017-11-11T16:34:39.752Z,80.97
2017-11-11T16:37:07.244Z,79.53
2017-11-11T16:39:34.754Z,77.10
2017-11-11T16:42:02.231Z,82.20
2017-11-11T16:44:29.725Z,108.70
2017-11-11T16:46:57.981Z,105.23
2017-11-11T16:49:26.243Z,80.70
2017-11-11T16:51:53.727Z,85.57
2017-11-11T16:54:21.978Z,93.57
2017-11-11T16:56:49.462Z,83.80
2017-11-11T16:59:17.718Z,122.47
2017-11-11T17:01:45.206Z,88.80
2017-11-11T17:04:13.450Z,85.50
2017-11-11T17:06:40.934Z,74.47
2017-11-11T17:09:09.174Z,81.50
2017-11-11T17:11:36.663Z,90.90
2017-11-11T17:14:04.914Z,87.00
2017-11-11T17:16:32.393Z,87.33
2017-11-11T17:18:59.889Z,84.33
2017-11-11T17:21:27.366Z,81.90
2017-11-11T17:23:54.844Z,91.70
2017-11-11T17:26:22.380Z,93.90
2017-11-11T17:28:49.863Z,84.97
2017-11-11T17:31:17.351Z,88.20
2017-11-11T17:33:45.607Z,88.10
2017-11-11T17:36:13.094Z,84.53
2017-11-11T17:38:41.351Z,92.17
2017-11-11T17:41:09.597Z,105.27
2017-11-11T17:43:37.070Z,79.17
2017-11-11T17:46:04.563Z,90.63
2017-11-11T17:48:32.813Z,86.73
2017-11-11T17:51:00.297Z,94.27
2017-11-11T17:53:28.546Z,90.00
2017-11-11T17:55:56.026Z,85.90
2017-11-11T17:58:23.505Z,93.20
2017-11-11T18:00:50.999Z,88.77
2017-11-11T18:03:18.483Z,78.03
2017-11-11T18:05:45.971Z,102.53
2017-11-11T18:08:14.222Z,94.40
2017-11-11T18:10:41.711Z,97.97
2017-11-11T18:13:09.234Z,100.77
2017-11-11T18:15:36.736Z,85.97
2017-11-11T18:18:04.229Z,96.27
2017-11-11T18:20:31.718Z,102.83
2017-11-11T18:22:59.201Z,100.40
2017-11-11T18:25:27.453Z,110.00
2017-11-11T18:27:54.958Z,103.57
2017-11-11T18:30:22.471Z,104.90
2017-11-11T18:32:49.978Z,111.87
2017-11-11T18:35:17.474Z,110.00
2017-11-11T18:37:45.001Z,101.70
2017-11-11T18:40:12.494Z,98.37
2017-11-11T18:42:39.983Z,127.30
2017-11-11T18:45:07.470Z,103.23
2017-11-11T18:47:35.734Z,124.27
2017-11-11T18:50:03.987Z,121.27
2017-11-11T18:52:31.483Z,114.73
2017-11-11T18:54:58.985Z,116.83
2017-11-11T18:57:26.522Z,124.77
2017-11-11T18:59:54.016Z,131.87
2017-11-11T19:02:21.506Z,115.80
2017-11-11T19:04:49.775Z,117.30
2017-11-11T19:07:18.038Z,130.50
2017-11-11T19:09:45.522Z,102.03
2017-11-11T19:12:13.778Z,112.03
2017-11-11T19:14:41.278Z,105.23
2017-11-11T19:17:08.780Z,103.90
2017-11-11T19:19:36.293Z,114.70
2017-11-11T19:22:03.782Z,121.93
2017-11-11T19:24:31.275Z,126.33
2017-11-11T19:26:58.772Z,119.83
2017-11-11T19:29:26.272Z,112.37
2017-11-11T19:31:53.759Z,106.63
2017-11-11T19:34:22.175Z,107.03
2017-11-11T19:36:49.655Z,93.23
2017-11-11T19:39:17.924Z,96.03
2017-11-11T19:41:45.414Z,108.43
2017-11-11T19:44:12.899Z,88.03
2017-11-11T19:46:41.170Z,91.43
2017-11-11T19:49:08.667Z,89.10
2017-11-11T19:51:36.159Z,90.30
2017-11-11T19:54:03.650Z,119.67
2017-11-11T19:56:31.906Z,88.37
2017-11-11T19:58:59.391Z,86.60
2017-11-11T20:01:27.656Z,94.37
2017-11-11T20:03:55.135Z,94.60
2017-11-11T20:06:23.390Z,97.63
2017-11-11T20:08:50.883Z,89.67
2017-11-11T20:11:18.370Z,92.13
2017-11-11T20:13:45.922Z,90.07
2017-11-11T20:16:13.444Z,102.80
2017-11-11T20:18:41.695Z,83.90
2017-11-11T20:21:09.182Z,94.30
2017-11-11T20:23:37.430Z,79.30
2017-11-11T20:26:04.917Z,88.50
2017-11-11T20:28:33.167Z,89.67
2017-11-11T20:31:00.650Z,101.67
2017-11-11T20:33:28.894Z,90.80
2017-11-11T20:35:56.382Z,92.10
2017-11-11T20:38:24.639Z,74.80
2017-11-11T20:40:52.158Z,87.13
2017-11-11T20:43:19.640Z,96.93
2017-11-11T20:45:47.125Z,93.00
2017-11-11T20:48:14.600Z,85.33
2017-11-11T20:50:42.855Z,90.80
2017-11-11T20:53:10.353Z,86.13
2017-11-11T20:55:37.890Z,95.93
2017-11-11T20:58:06.153Z,89.93
2017-11-11T21:00:33.650Z,97.43
2017-11-11T21:03:01.148Z,123.10
2017-11-11T21:05:28.631Z,110.00
2017-11-11T21:07:56.215Z,118.53
2017-11-11T21:10:24.471Z,133.27
2017-11-11T21:12:51.946Z,155.10
2017-11-11T21:15:20.194Z,187.00
2017-11-11T21:17:47.675Z,150.23
2017-11-11T21:20:15.927Z,157.67
2017-11-11T21:22:43.415Z,157.50
2017-11-11T21:25:11.666Z,174.43
2017-11-11T21:27:39.150Z,166.57
2017-11-11T21:30:07.407Z,191.10
2017-11-11T21:32:34.903Z,197.50
2017-11-11T21:35:02.395Z,281.47
2017-11-11T21:37:29.874Z,253.50
2017-11-11T21:39:57.360Z,212.10
2017-11-11T21:42:24.852Z,181.03
2017-11-11T21:44:52.337Z,202.47
2017-11-11T21:47:19.832Z,199.37
2017-11-11T21:49:47.318Z,215.80
2017-11-11T21:52:15.572Z,186.17
2017-11-11T21:54:43.061Z,175.53
2017-11-11T21:57:10.550Z,156.20
2017-11-11T21:59:38.050Z,172.17
2017-11-11T22:02:06.327Z,189.47
2017-11-11T22:04:34.579Z,188.63
2017-11-11T22:07:02.063Z,175.87
2017-11-11T22:09:30.322Z,185.00
2017-11-11T22:11:57.823Z,161.93
2017-11-11T22:14:25.315Z,156.50
2017-11-11T22:16:52.799Z,142.13
2017-11-11T22:19:20.299Z,152.57
2017-11-11T22:21:47.800Z,127.77
2017-11-11T22:24:15.299Z,255.43
2017-11-11T22:26:43.545Z,135.93
2017-11-11T22:29:11.032Z,137.17
2017-11-11T22:31:39.297Z,127.83
2017-11-11T22:34:06.831Z,123.93
2017-11-11T22:36:34.319Z,129.13
2017-11-11T22:39:01.814Z,124.70
2017-11-11T22:41:29.298Z,132.77
2017-11-11T22:43:56.799Z,119.17
2017-11-11T22:46:24.292Z,131.60
2017-11-11T22:48:51.787Z,119.17
2017-11-11T22:51:19.265Z,114.10
2017-11-11T22:53:46.756Z,130.43
2017-11-11T22:56:15.002Z,138.90
2017-11-11T22:58:42.479Z,121.03
2017-11-11T23:01:10.730Z,125.67
2017-11-11T23:03:38.221Z,102.20
2017-11-11T23:06:06.482Z,110.83
2017-11-11T23:08:33.974Z,120.73
2017-11-11T23:11:01.471Z,111.60
2017-11-11T23:13:28.953Z,121.53
2017-11-11T23:15:56.460Z,105.10
2017-11-11T23:18:28.115Z,118.00
2017-11-11T23:20:56.650Z,115.20
2017-11-11T23:23:30.526Z,139.23
2017-11-11T23:26:04.398Z,139.00
2017-11-11T23:28:35.074Z,125.77
2017-11-11T23:31:02.992Z,121.17
2017-11-11T23:33:31.300Z,159.23
2017-11-11T23:35:58.964Z,131.20
2017-11-11T23:38:26.674Z,147.77
2017-11-11T23:40:54.296Z,107.80
2017-11-11T23:43:22.002Z,143.87
2017-11-11T23:45:51.052Z,128.97
2017-11-11T23:48:18.602Z,117.27
2017-11-11T23:50:46.343Z,151.93
2017-11-11T23:53:14.825Z,110.87
2017-11-11T23:55:43.126Z,135.23
2017-11-11T23:58:10.702Z,129.93
